sensor_id;sensor_type;location;lat;lon;timestamp;temperature;humidity
59311;DHT22;45078;51.654;21.250;2023-12-22T00:01:06;5.70;99.90
59311;DHT22;45078;51.654;21.250;2023-12-22T00:03:32;5.50;99.90
59311;DHT22;45078;51.654;21.250;2023-12-22T00:05:57;5.40;99.90
59311;DHT22;45078;51.654;21.250;2023-12-22T00:08:23;5.20;99.90
59311;DHT22;45078;51.654;21.250;2023-12-22T00:10:49;5.00;99.90
59311;DHT22;45078;51.654;21.250;2023-12-22T00:13:15;4.90;99.90
59311;DHT22;45078;51.654;21.250;2023-12-22T00:15:41;4.80;99.90
59311;DHT22;45078;51.654;21.250;2023-12-22T00:18:08;4.80;99.90
59311;DHT22;45078;51.654;21.250;2023-12-22T00:20:34;4.70;99.90
59311;DHT22;45078;51.654;21.250;2023-12-22T00:22:59;4.70;99.90
59311;DHT22;45078;51.654;21.250;2023-12-22T00:25:25;4.70;99.90
59311;DHT22;45078;51.654;21.250;2023-12-22T00:27:51;4.60;99.90
59311;DHT22;45078;51.654;21.250;2023-12-22T00:30:16;4.60;99.90
59311;DHT22;45078;51.654;21.250;2023-12-22T00:32:42;4.70;99.90
59311;DHT22;45078;51.654;21.250;2023-12-22T00:35:09;4.80;99.90
59311;DHT22;45078;51.654;21.250;2023-12-22T00:37:35;4.80;99.90
59311;DHT22;45078;51.654;21.250;2023-12-22T00:40:01;4.80;99.90
59311;DHT22;45078;51.654;21.250;2023-12-22T00:42:29;4.80;99.90
59311;DHT22;45078;51.654;21.250;2023-12-22T00:44:55;4.80;99.90
59311;DHT22;45078;51.654;21.250;2023-12-22T00:47:20;4.80;99.90
59311;DHT22;45078;51.654;21.250;2023-12-22T00:49:46;4.70;99.90
59311;DHT22;45078;51.654;21.250;2023-12-22T00:52:11;4.70;99.90
59311;DHT22;45078;51.654;21.250;2023-12-22T00:54:37;4.60;99.90
59311;DHT22;45078;51.654;21.250;2023-12-22T00:57:03;4.60;99.90
59311;DHT22;45078;51.654;21.250;2023-12-22T00:59:29;4.60;99.90
59311;DHT22;45078;51.654;21.250;2023-12-22T01:01:55;4.50;99.90
59311;DHT22;45078;51.654;21.250;2023-12-22T01:04:20;4.50;99.90
59311;DHT22;45078;51.654;21.250;2023-12-22T01:06:46;4.50;99.90
59311;DHT22;45078;51.654;21.250;2023-12-22T01:09:12;4.40;99.90
59311;DHT22;45078;51.654;21.250;2023-12-22T01:11:37;4.50;99.90
59311;DHT22;45078;51.654;21.250;2023-12-22T01:14:03;4.50;99.90
59311;DHT22;45078;51.654;21.250;2023-12-22T01:16:28;4.50;99.90
59311;DHT22;45078;51.654;21.250;2023-12-22T01:18:54;4.60;99.90
59311;DHT22;45078;51.654;21.250;2023-12-22T01:21:19;4.50;99.90
59311;DHT22;45078;51.654;21.250;2023-12-22T01:23:45;4.60;99.90
59311;DHT22;45078;51.654;21.250;2023-12-22T01:26:11;4.50;99.90
59311;DHT22;45078;51.654;21.250;2023-12-22T01:28:36;4.50;99.90
59311;DHT22;45078;51.654;21.250;2023-12-22T01:31:02;4.60;99.90
59311;DHT22;45078;51.654;21.250;2023-12-22T01:33:28;4.60;99.90
59311;DHT22;45078;51.654;21.250;2023-12-22T01:35:55;4.70;99.90
59311;DHT22;45078;51.654;21.250;2023-12-22T01:38:20;4.80;99.90
59311;DHT22;45078;51.654;21.250;2023-12-22T01:40:46;4.70;99.90
59311;DHT22;45078;51.654;21.250;2023-12-22T01:43:12;4.70;99.90
59311;DHT22;45078;51.654;21.250;2023-12-22T01:45:40;4.70;99.90
59311;DHT22;45078;51.654;21.250;2023-12-22T01:48:09;4.60;99.90
59311;DHT22;45078;51.654;21.250;2023-12-22T01:50:35;4.60;99.90
59311;DHT22;45078;51.654;21.250;2023-12-22T01:53:02;4.70;99.90
59311;DHT22;45078;51.654;21.250;2023-12-22T01:55:29;4.70;99.90
59311;DHT22;45078;51.654;21.250;2023-12-22T01:57:55;4.60;99.90
59311;DHT22;45078;51.654;21.250;2023-12-22T02:00:21;4.60;99.90
59311;DHT22;45078;51.654;21.250;2023-12-22T02:02:47;4.40;99.90
59311;DHT22;45078;51.654;21.250;2023-12-22T02:05:13;4.40;99.90
59311;DHT22;45078;51.654;21.250;2023-12-22T02:07:40;4.40;99.90
59311;DHT22;45078;51.654;21.250;2023-12-22T02:10:09;4.30;99.90
59311;DHT22;45078;51.654;21.250;2023-12-22T02:12:38;4.40;99.90
59311;DHT22;45078;51.654;21.250;2023-12-22T02:15:04;4.40;99.90
59311;DHT22;45078;51.654;21.250;2023-12-22T02:20:19;4.40;99.90
59311;DHT22;45078;51.654;21.250;2023-12-22T02:22:51;4.50;99.90
59311;DHT22;45078;51.654;21.250;2023-12-22T02:25:18;4.40;99.90
59311;DHT22;45078;51.654;21.250;2023-12-22T02:27:53;4.40;99.90
59311;DHT22;45078;51.654;21.250;2023-12-22T02:30:28;4.40;99.90
59311;DHT22;45078;51.654;21.250;2023-12-22T02:32:59;4.50;99.90
59311;DHT22;45078;51.654;21.250;2023-12-22T02:35:27;4.50;99.90
59311;DHT22;45078;51.654;21.250;2023-12-22T02:37:54;4.50;99.90
59311;DHT22;45078;51.654;21.250;2023-12-22T02:40:22;4.40;99.90
59311;DHT22;45078;51.654;21.250;2023-12-22T02:42:48;4.50;99.90
59311;DHT22;45078;51.654;21.250;2023-12-22T02:45:16;4.40;99.90
59311;DHT22;45078;51.654;21.250;2023-12-22T02:47:42;4.50;99.90
59311;DHT22;45078;51.654;21.250;2023-12-22T02:50:08;4.40;99.90
59311;DHT22;45078;51.654;21.250;2023-12-22T02:52:34;4.40;99.90
59311;DHT22;45078;51.654;21.250;2023-12-22T02:55:01;4.40;99.90
59311;DHT22;45078;51.654;21.250;2023-12-22T02:57:27;4.40;99.90
59311;DHT22;45078;51.654;21.250;2023-12-22T02:59:52;4.40;99.90
59311;DHT22;45078;51.654;21.250;2023-12-22T03:02:18;4.40;99.90
59311;DHT22;45078;51.654;21.250;2023-12-22T03:04:44;4.40;99.90
59311;DHT22;45078;51.654;21.250;2023-12-22T03:07:12;4.40;99.90
59311;DHT22;45078;51.654;21.250;2023-12-22T03:09:37;4.40;99.90
59311;DHT22;45078;51.654;21.250;2023-12-22T03:12:03;4.30;99.90
59311;DHT22;45078;51.654;21.250;2023-12-22T03:14:32;4.30;99.90
59311;DHT22;45078;51.654;21.250;2023-12-22T03:17:05;4.40;99.90
59311;DHT22;45078;51.654;21.250;2023-12-22T03:19:32;4.40;99.90
59311;DHT22;45078;51.654;21.250;2023-12-22T03:21:58;4.40;99.90
59311;DHT22;45078;51.654;21.250;2023-12-22T03:24:24;4.40;99.90
59311;DHT22;45078;51.654;21.250;2023-12-22T03:26:52;4.40;99.90
59311;DHT22;45078;51.654;21.250;2023-12-22T03:29:18;4.50;99.90
59311;DHT22;45078;51.654;21.250;2023-12-22T03:31:45;4.40;99.90
59311;DHT22;45078;51.654;21.250;2023-12-22T03:34:11;4.30;99.90
59311;DHT22;45078;51.654;21.250;2023-12-22T03:36:37;4.20;99.90
59311;DHT22;45078;51.654;21.250;2023-12-22T03:39:05;4.30;99.90
59311;DHT22;45078;51.654;21.250;2023-12-22T03:41:31;4.40;99.90
59311;DHT22;45078;51.654;21.250;2023-12-22T03:43:57;4.40;99.90
59311;DHT22;45078;51.654;21.250;2023-12-22T03:46:23;4.40;99.90
59311;DHT22;45078;51.654;21.250;2023-12-22T03:48:49;4.30;99.90
59311;DHT22;45078;51.654;21.250;2023-12-22T03:51:15;4.30;99.90
59311;DHT22;45078;51.654;21.250;2023-12-22T03:53:41;4.30;99.90
59311;DHT22;45078;51.654;21.250;2023-12-22T03:56:08;4.20;99.90
59311;DHT22;45078;51.654;21.250;2023-12-22T03:58:37;4.30;99.90
59311;DHT22;45078;51.654;21.250;2023-12-22T04:01:03;4.30;99.90
59311;DHT22;45078;51.654;21.250;2023-12-22T04:03:29;4.30;99.90
59311;DHT22;45078;51.654;21.250;2023-12-22T04:05:54;4.20;99.90
59311;DHT22;45078;51.654;21.250;2023-12-22T04:08:20;4.20;99.90
59311;DHT22;45078;51.654;21.250;2023-12-22T04:10:46;4.20;99.90
59311;DHT22;45078;51.654;21.250;2023-12-22T04:13:12;4.30;99.90
59311;DHT22;45078;51.654;21.250;2023-12-22T04:15:38;4.30;99.90
59311;DHT22;45078;51.654;21.250;2023-12-22T04:18:04;4.40;99.90
59311;DHT22;45078;51.654;21.250;2023-12-22T04:20:30;4.30;99.90
59311;DHT22;45078;51.654;21.250;2023-12-22T04:22:55;4.30;99.90
59311;DHT22;45078;51.654;21.250;2023-12-22T04:25:21;4.30;99.90
59311;DHT22;45078;51.654;21.250;2023-12-22T04:27:48;4.30;99.90
59311;DHT22;45078;51.654;21.250;2023-12-22T04:30:15;4.30;99.90
59311;DHT22;45078;51.654;21.250;2023-12-22T04:32:40;4.30;99.90
59311;DHT22;45078;51.654;21.250;2023-12-22T04:35:07;4.40;99.90
59311;DHT22;45078;51.654;21.250;2023-12-22T04:37:32;4.40;99.90
59311;DHT22;45078;51.654;21.250;2023-12-22T04:39:58;4.40;99.90
59311;DHT22;45078;51.654;21.250;2023-12-22T04:42:24;4.40;99.90
59311;DHT22;45078;51.654;21.250;2023-12-22T04:44:53;4.30;99.90
59311;DHT22;45078;51.654;21.250;2023-12-22T04:47:19;4.30;99.90
59311;DHT22;45078;51.654;21.250;2023-12-22T04:49:45;4.20;99.90
59311;DHT22;45078;51.654;21.250;2023-12-22T04:52:11;4.10;99.90
59311;DHT22;45078;51.654;21.250;2023-12-22T04:54:37;4.10;99.90
59311;DHT22;45078;51.654;21.250;2023-12-22T04:57:03;4.00;99.90
59311;DHT22;45078;51.654;21.250;2023-12-22T04:59:29;3.90;99.90
59311;DHT22;45078;51.654;21.250;2023-12-22T05:01:55;4.00;99.90
59311;DHT22;45078;51.654;21.250;2023-12-22T05:04:20;4.00;99.90
59311;DHT22;45078;51.654;21.250;2023-12-22T05:06:47;3.90;99.90
59311;DHT22;45078;51.654;21.250;2023-12-22T05:09:12;3.90;99.90
59311;DHT22;45078;51.654;21.250;2023-12-22T05:11:38;3.80;99.90
59311;DHT22;45078;51.654;21.250;2023-12-22T05:14:04;3.90;99.90
59311;DHT22;45078;51.654;21.250;2023-12-22T05:16:29;3.80;99.90
59311;DHT22;45078;51.654;21.250;2023-12-22T05:18:57;3.80;99.90
59311;DHT22;45078;51.654;21.250;2023-12-22T05:21:23;3.80;99.90
59311;DHT22;45078;51.654;21.250;2023-12-22T05:23:49;3.90;99.90
59311;DHT22;45078;51.654;21.250;2023-12-22T05:26:19;3.80;99.90
59311;DHT22;45078;51.654;21.250;2023-12-22T05:28:45;3.90;99.90
59311;DHT22;45078;51.654;21.250;2023-12-22T05:31:10;3.80;99.90
59311;DHT22;45078;51.654;21.250;2023-12-22T05:33:36;3.80;99.90
59311;DHT22;45078;51.654;21.250;2023-12-22T05:36:02;3.80;99.90
59311;DHT22;45078;51.654;21.250;2023-12-22T05:38:28;3.80;99.90
59311;DHT22;45078;51.654;21.250;2023-12-22T05:40:54;3.70;99.90
59311;DHT22;45078;51.654;21.250;2023-12-22T05:43:20;3.70;99.90
59311;DHT22;45078;51.654;21.250;2023-12-22T05:45:45;3.60;99.90
59311;DHT22;45078;51.654;21.250;2023-12-22T05:48:11;3.60;99.90
59311;DHT22;45078;51.654;21.250;2023-12-22T05:50:37;3.60;99.90
59311;DHT22;45078;51.654;21.250;2023-12-22T05:53:02;3.60;99.90
59311;DHT22;45078;51.654;21.250;2023-12-22T05:55:28;3.60;99.90
59311;DHT22;45078;51.654;21.250;2023-12-22T05:57:54;3.50;99.90
59311;DHT22;45078;51.654;21.250;2023-12-22T06:00:21;3.60;99.90
59311;DHT22;45078;51.654;21.250;2023-12-22T06:02:47;3.50;99.90
59311;DHT22;45078;51.654;21.250;2023-12-22T06:05:12;3.50;99.90
59311;DHT22;45078;51.654;21.250;2023-12-22T06:07:39;3.50;99.90
59311;DHT22;45078;51.654;21.250;2023-12-22T06:10:05;3.50;99.90
59311;DHT22;45078;51.654;21.250;2023-12-22T06:12:31;3.50;99.90
59311;DHT22;45078;51.654;21.250;2023-12-22T06:14:57;3.50;99.90
59311;DHT22;45078;51.654;21.250;2023-12-22T06:17:22;3.40;99.90
59311;DHT22;45078;51.654;21.250;2023-12-22T06:19:48;3.50;99.90
59311;DHT22;45078;51.654;21.250;2023-12-22T06:22:13;3.40;99.90
59311;DHT22;45078;51.654;21.250;2023-12-22T06:24:39;3.50;99.90
59311;DHT22;45078;51.654;21.250;2023-12-22T06:27:04;3.50;99.90
59311;DHT22;45078;51.654;21.250;2023-12-22T06:29:32;3.60;99.90
59311;DHT22;45078;51.654;21.250;2023-12-22T06:31:57;3.70;99.90
59311;DHT22;45078;51.654;21.250;2023-12-22T06:34:23;3.70;99.90
59311;DHT22;45078;51.654;21.250;2023-12-22T06:36:50;3.80;99.90
59311;DHT22;45078;51.654;21.250;2023-12-22T06:39:15;3.70;99.90
59311;DHT22;45078;51.654;21.250;2023-12-22T06:41:41;3.70;99.90
59311;DHT22;45078;51.654;21.250;2023-12-22T06:44:07;3.70;99.90
59311;DHT22;45078;51.654;21.250;2023-12-22T06:46:32;3.70;99.90
59311;DHT22;45078;51.654;21.250;2023-12-22T06:48:59;3.80;99.90
59311;DHT22;45078;51.654;21.250;2023-12-22T06:51:29;3.70;99.90
59311;DHT22;45078;51.654;21.250;2023-12-22T06:54:02;3.80;99.90
59311;DHT22;45078;51.654;21.250;2023-12-22T06:56:32;3.90;99.90
59311;DHT22;45078;51.654;21.250;2023-12-22T06:58:59;3.80;99.90
59311;DHT22;45078;51.654;21.250;2023-12-22T07:01:32;3.80;99.90
59311;DHT22;45078;51.654;21.250;2023-12-22T07:03:58;3.80;99.90
59311;DHT22;45078;51.654;21.250;2023-12-22T07:06:29;3.80;99.90
59311;DHT22;45078;51.654;21.250;2023-12-22T07:11:49;3.90;99.90
59311;DHT22;45078;51.654;21.250;2023-12-22T07:14:16;3.90;99.90
59311;DHT22;45078;51.654;21.250;2023-12-22T07:16:42;3.90;99.90
59311;DHT22;45078;51.654;21.250;2023-12-22T07:19:08;3.80;99.90
59311;DHT22;45078;51.654;21.250;2023-12-22T07:21:33;3.80;99.90
59311;DHT22;45078;51.654;21.250;2023-12-22T07:23:59;3.90;99.90
59311;DHT22;45078;51.654;21.250;2023-12-22T07:26:25;3.90;99.90
59311;DHT22;45078;51.654;21.250;2023-12-22T07:28:52;3.80;99.90
59311;DHT22;45078;51.654;21.250;2023-12-22T07:31:18;3.80;99.90
59311;DHT22;45078;51.654;21.250;2023-12-22T07:33:43;3.80;99.90
59311;DHT22;45078;51.654;21.250;2023-12-22T07:36:09;3.80;99.90
59311;DHT22;45078;51.654;21.250;2023-12-22T07:38:36;3.80;99.90
59311;DHT22;45078;51.654;21.250;2023-12-22T07:41:02;3.90;99.90
59311;DHT22;45078;51.654;21.250;2023-12-22T07:43:27;4.00;99.90
59311;DHT22;45078;51.654;21.250;2023-12-22T07:45:55;4.00;99.90
59311;DHT22;45078;51.654;21.250;2023-12-22T07:48:20;4.00;99.90
59311;DHT22;45078;51.654;21.250;2023-12-22T07:50:46;4.10;99.90
59311;DHT22;45078;51.654;21.250;2023-12-22T07:53:12;4.20;99.90
59311;DHT22;45078;51.654;21.250;2023-12-22T07:55:37;4.50;99.90
59311;DHT22;45078;51.654;21.250;2023-12-22T07:58:04;4.60;99.90
59311;DHT22;45078;51.654;21.250;2023-12-22T08:00:30;4.50;99.90
59311;DHT22;45078;51.654;21.250;2023-12-22T08:02:56;4.10;99.90
59311;DHT22;45078;51.654;21.250;2023-12-22T08:05:22;3.70;99.90
59311;DHT22;45078;51.654;21.250;2023-12-22T08:07:47;3.50;99.90
59311;DHT22;45078;51.654;21.250;2023-12-22T08:10:13;3.50;99.90
59311;DHT22;45078;51.654;21.250;2023-12-22T08:12:38;3.60;99.90
59311;DHT22;45078;51.654;21.250;2023-12-22T08:15:05;4.00;99.90
59311;DHT22;45078;51.654;21.250;2023-12-22T08:17:31;4.50;99.90
59311;DHT22;45078;51.654;21.250;2023-12-22T08:19:57;4.80;99.90
59311;DHT22;45078;51.654;21.250;2023-12-22T08:22:23;5.10;99.90
59311;DHT22;45078;51.654;21.250;2023-12-22T08:24:51;5.30;99.90
59311;DHT22;45078;51.654;21.250;2023-12-22T08:27:16;5.40;99.90
59311;DHT22;45078;51.654;21.250;2023-12-22T08:29:42;5.70;99.90
59311;DHT22;45078;51.654;21.250;2023-12-22T08:32:08;6.00;99.60
59311;DHT22;45078;51.654;21.250;2023-12-22T08:34:33;6.30;98.40
59311;DHT22;45078;51.654;21.250;2023-12-22T08:37:00;6.80;97.00
59311;DHT22;45078;51.654;21.250;2023-12-22T08:39:26;7.50;94.30
59311;DHT22;45078;51.654;21.250;2023-12-22T08:41:52;8.10;93.30
59311;DHT22;45078;51.654;21.250;2023-12-22T08:44:18;7.90;92.40
59311;DHT22;45078;51.654;21.250;2023-12-22T08:46:44;8.40;91.50
59311;DHT22;45078;51.654;21.250;2023-12-22T08:49:10;8.70;90.80
59311;DHT22;45078;51.654;21.250;2023-12-22T08:51:35;8.50;90.50
59311;DHT22;45078;51.654;21.250;2023-12-22T08:54:01;8.50;90.80
59311;DHT22;45078;51.654;21.250;2023-12-22T08:56:27;8.10;90.00
59311;DHT22;45078;51.654;21.250;2023-12-22T08:58:53;8.60;90.40
59311;DHT22;45078;51.654;21.250;2023-12-22T09:01:21;8.50;91.10
59311;DHT22;45078;51.654;21.250;2023-12-22T09:03:48;9.50;88.20
59311;DHT22;45078;51.654;21.250;2023-12-22T09:06:21;9.60;87.60
59311;DHT22;45078;51.654;21.250;2023-12-22T09:08:47;10.00;86.10
59311;DHT22;45078;51.654;21.250;2023-12-22T09:11:16;10.70;85.20
59311;DHT22;45078;51.654;21.250;2023-12-22T09:13:42;11.20;80.80
59311;DHT22;45078;51.654;21.250;2023-12-22T09:16:08;10.80;81.50
59311;DHT22;45078;51.654;21.250;2023-12-22T09:18:35;10.90;81.10
59311;DHT22;45078;51.654;21.250;2023-12-22T09:21:01;10.10;81.80
59311;DHT22;45078;51.654;21.250;2023-12-22T09:23:27;10.20;82.70
59311;DHT22;45078;51.654;21.250;2023-12-22T09:25:52;10.00;82.50
59311;DHT22;45078;51.654;21.250;2023-12-22T09:28:18;10.10;82.10
59311;DHT22;45078;51.654;21.250;2023-12-22T09:44:32;9.60;81.80
59311;DHT22;45078;51.654;21.250;2023-12-22T09:46:59;10.50;79.90
59311;DHT22;45078;51.654;21.250;2023-12-22T09:49:28;10.80;79.50
59311;DHT22;45078;51.654;21.250;2023-12-22T09:51:55;10.80;78.80
59311;DHT22;45078;51.654;21.250;2023-12-22T09:54:22;10.30;77.90
59311;DHT22;45078;51.654;21.250;2023-12-22T09:56:48;10.30;79.10
59311;DHT22;45078;51.654;21.250;2023-12-22T09:59:16;9.60;79.20
59311;DHT22;45078;51.654;21.250;2023-12-22T10:01:43;9.20;81.40
59311;DHT22;45078;51.654;21.250;2023-12-22T10:04:11;9.40;80.60
59311;DHT22;45078;51.654;21.250;2023-12-22T10:06:37;9.80;80.70
59311;DHT22;45078;51.654;21.250;2023-12-22T10:09:05;9.30;79.80
59311;DHT22;45078;51.654;21.250;2023-12-22T10:11:32;8.70;81.50
59311;DHT22;45078;51.654;21.250;2023-12-22T10:14:00;8.00;83.30
59311;DHT22;45078;51.654;21.250;2023-12-22T10:16:27;7.30;85.80
59311;DHT22;45078;51.654;21.250;2023-12-22T10:18:53;6.70;88.60
59311;DHT22;45078;51.654;21.250;2023-12-22T10:21:19;6.20;90.30
59311;DHT22;45078;51.654;21.250;2023-12-22T10:23:44;5.90;91.30
59311;DHT22;45078;51.654;21.250;2023-12-22T10:26:13;5.60;92.30
59311;DHT22;45078;51.654;21.250;2023-12-22T10:28:38;5.40;92.70
59311;DHT22;45078;51.654;21.250;2023-12-22T10:31:05;5.20;93.90
59311;DHT22;45078;51.654;21.250;2023-12-22T10:33:33;5.10;93.80
59311;DHT22;45078;51.654;21.250;2023-12-22T10:35:59;4.90;94.40
59311;DHT22;45078;51.654;21.250;2023-12-22T10:38:27;4.80;94.90
59311;DHT22;45078;51.654;21.250;2023-12-22T10:40:53;4.90;95.30
59311;DHT22;45078;51.654;21.250;2023-12-22T10:43:20;5.10;95.80
59311;DHT22;45078;51.654;21.250;2023-12-22T10:45:45;5.30;95.70
59311;DHT22;45078;51.654;21.250;2023-12-22T10:48:11;5.50;95.50
59311;DHT22;45078;51.654;21.250;2023-12-22T10:50:39;6.00;95.10
59311;DHT22;45078;51.654;21.250;2023-12-22T10:53:06;6.60;94.20
59311;DHT22;45078;51.654;21.250;2023-12-22T10:55:31;7.00;93.20
59311;DHT22;45078;51.654;21.250;2023-12-22T10:58:04;6.70;93.20
59311;DHT22;45078;51.654;21.250;2023-12-22T11:00:36;6.10;94.20
59311;DHT22;45078;51.654;21.250;2023-12-22T11:03:06;5.80;95.30
59311;DHT22;45078;51.654;21.250;2023-12-22T11:05:35;5.40;96.30
59311;DHT22;45078;51.654;21.250;2023-12-22T11:08:03;4.90;99.60
59311;DHT22;45078;51.654;21.250;2023-12-22T11:10:31;4.20;99.90
59311;DHT22;45078;51.654;21.250;2023-12-22T11:12:57;3.50;99.90
59311;DHT22;45078;51.654;21.250;2023-12-22T11:15:24;3.20;99.90
59311;DHT22;45078;51.654;21.250;2023-12-22T11:17:51;2.80;99.90
59311;DHT22;45078;51.654;21.250;2023-12-22T11:20:18;2.50;99.90
59311;DHT22;45078;51.654;21.250;2023-12-22T11:22:44;2.40;99.90
59311;DHT22;45078;51.654;21.250;2023-12-22T11:25:10;2.30;99.90
59311;DHT22;45078;51.654;21.250;2023-12-22T11:27:37;2.00;99.90
59311;DHT22;45078;51.654;21.250;2023-12-22T11:30:04;1.90;99.90
59311;DHT22;45078;51.654;21.250;2023-12-22T11:32:34;2.00;99.90
59311;DHT22;45078;51.654;21.250;2023-12-22T11:35:00;2.50;99.90
59311;DHT22;45078;51.654;21.250;2023-12-22T11:37:25;2.80;99.90
59311;DHT22;45078;51.654;21.250;2023-12-22T11:39:51;3.00;99.90
59311;DHT22;45078;51.654;21.250;2023-12-22T11:42:26;2.90;99.90
59311;DHT22;45078;51.654;21.250;2023-12-22T11:44:53;3.00;99.90
59311;DHT22;45078;51.654;21.250;2023-12-22T11:47:22;3.00;99.90
59311;DHT22;45078;51.654;21.250;2023-12-22T11:49:48;3.10;99.90
59311;DHT22;45078;51.654;21.250;2023-12-22T11:52:18;3.20;99.90
59311;DHT22;45078;51.654;21.250;2023-12-22T11:54:51;3.50;99.90
59311;DHT22;45078;51.654;21.250;2023-12-22T11:57:34;3.70;99.90
59311;DHT22;45078;51.654;21.250;2023-12-22T12:02:36;4.00;99.90
59311;DHT22;45078;51.654;21.250;2023-12-22T12:05:02;3.90;99.90
59311;DHT22;45078;51.654;21.250;2023-12-22T12:13:06;3.30;99.90
59311;DHT22;45078;51.654;21.250;2023-12-22T12:15:33;3.10;99.90
59311;DHT22;45078;51.654;21.250;2023-12-22T12:18:00;2.90;99.90
59311;DHT22;45078;51.654;21.250;2023-12-22T12:20:27;2.70;99.90
59311;DHT22;45078;51.654;21.250;2023-12-22T12:22:53;2.40;99.90
59311;DHT22;45078;51.654;21.250;2023-12-22T12:25:22;2.20;99.90
59311;DHT22;45078;51.654;21.250;2023-12-22T12:28:00;2.20;99.90
59311;DHT22;45078;51.654;21.250;2023-12-22T12:30:26;2.20;99.90
59311;DHT22;45078;51.654;21.250;2023-12-22T12:32:51;2.20;99.90
59311;DHT22;45078;51.654;21.250;2023-12-22T12:35:18;2.20;99.90
59311;DHT22;45078;51.654;21.250;2023-12-22T12:37:44;2.10;99.90
59311;DHT22;45078;51.654;21.250;2023-12-22T12:40:11;2.20;99.90
59311;DHT22;45078;51.654;21.250;2023-12-22T12:42:37;2.30;99.90
59311;DHT22;45078;51.654;21.250;2023-12-22T12:45:07;2.30;99.90
59311;DHT22;45078;51.654;21.250;2023-12-22T12:47:33;2.30;99.90
59311;DHT22;45078;51.654;21.250;2023-12-22T12:50:00;2.30;99.90
59311;DHT22;45078;51.654;21.250;2023-12-22T12:52:26;2.20;99.90
59311;DHT22;45078;51.654;21.250;2023-12-22T12:54:52;2.20;99.90
59311;DHT22;45078;51.654;21.250;2023-12-22T12:57:18;2.10;99.90
59311;DHT22;45078;51.654;21.250;2023-12-22T12:59:47;2.10;99.90
59311;DHT22;45078;51.654;21.250;2023-12-22T13:02:22;2.00;99.90
59311;DHT22;45078;51.654;21.250;2023-12-22T13:04:49;2.00;99.90
59311;DHT22;45078;51.654;21.250;2023-12-22T13:07:23;1.90;99.90
59311;DHT22;45078;51.654;21.250;2023-12-22T13:09:50;2.00;99.90
59311;DHT22;45078;51.654;21.250;2023-12-22T13:12:15;1.90;99.90
59311;DHT22;45078;51.654;21.250;2023-12-22T13:14:42;1.90;99.90
59311;DHT22;45078;51.654;21.250;2023-12-22T13:17:08;1.90;99.90
59311;DHT22;45078;51.654;21.250;2023-12-22T13:19:35;1.90;99.90
59311;DHT22;45078;51.654;21.250;2023-12-22T13:22:01;1.90;99.90
59311;DHT22;45078;51.654;21.250;2023-12-22T13:24:26;1.90;99.90
59311;DHT22;45078;51.654;21.250;2023-12-22T13:27:00;1.90;99.90
59311;DHT22;45078;51.654;21.250;2023-12-22T13:29:27;1.80;99.90
59311;DHT22;45078;51.654;21.250;2023-12-22T13:31:54;1.80;99.90
59311;DHT22;45078;51.654;21.250;2023-12-22T13:34:20;1.80;99.90
59311;DHT22;45078;51.654;21.250;2023-12-22T13:36:45;1.80;99.90
59311;DHT22;45078;51.654;21.250;2023-12-22T13:39:11;1.80;99.90
59311;DHT22;45078;51.654;21.250;2023-12-22T13:41:41;1.80;99.90
59311;DHT22;45078;51.654;21.250;2023-12-22T13:44:11;1.80;99.90
59311;DHT22;45078;51.654;21.250;2023-12-22T13:46:37;1.80;99.90
59311;DHT22;45078;51.654;21.250;2023-12-22T13:49:07;1.80;99.90
59311;DHT22;45078;51.654;21.250;2023-12-22T13:51:45;1.80;99.90
59311;DHT22;45078;51.654;21.250;2023-12-22T13:54:13;1.80;99.90
59311;DHT22;45078;51.654;21.250;2023-12-22T13:56:39;1.80;99.90
59311;DHT22;45078;51.654;21.250;2023-12-22T13:59:09;1.80;99.90
59311;DHT22;45078;51.654;21.250;2023-12-22T14:01:35;1.80;99.90
59311;DHT22;45078;51.654;21.250;2023-12-22T14:04:00;1.70;99.90
59311;DHT22;45078;51.654;21.250;2023-12-22T14:06:27;1.70;99.90
59311;DHT22;45078;51.654;21.250;2023-12-22T14:08:56;1.70;99.90
59311;DHT22;45078;51.654;21.250;2023-12-22T14:11:22;1.70;99.90
59311;DHT22;45078;51.654;21.250;2023-12-22T14:13:48;1.70;99.90
59311;DHT22;45078;51.654;21.250;2023-12-22T14:16:14;1.70;99.90
59311;DHT22;45078;51.654;21.250;2023-12-22T14:18:43;1.70;99.90
59311;DHT22;45078;51.654;21.250;2023-12-22T14:21:10;1.70;99.90
59311;DHT22;45078;51.654;21.250;2023-12-22T14:23:36;1.70;99.90
59311;DHT22;45078;51.654;21.250;2023-12-22T14:26:01;1.70;99.90
59311;DHT22;45078;51.654;21.250;2023-12-22T14:28:27;1.70;99.90
59311;DHT22;45078;51.654;21.250;2023-12-22T14:30:53;1.70;99.90
59311;DHT22;45078;51.654;21.250;2023-12-22T14:33:18;1.70;99.90
59311;DHT22;45078;51.654;21.250;2023-12-22T14:35:44;1.80;99.90
59311;DHT22;45078;51.654;21.250;2023-12-22T14:38:09;1.80;99.90
59311;DHT22;45078;51.654;21.250;2023-12-22T14:40:35;1.70;99.90
59311;DHT22;45078;51.654;21.250;2023-12-22T14:43:01;1.70;99.90
59311;DHT22;45078;51.654;21.250;2023-12-22T14:45:27;1.70;99.90
59311;DHT22;45078;51.654;21.250;2023-12-22T14:47:53;1.70;99.90
59311;DHT22;45078;51.654;21.250;2023-12-22T14:50:19;1.70;99.90
59311;DHT22;45078;51.654;21.250;2023-12-22T14:52:44;1.70;99.90
59311;DHT22;45078;51.654;21.250;2023-12-22T14:55:10;1.80;99.90
59311;DHT22;45078;51.654;21.250;2023-12-22T14:57:36;1.80;99.90
59311;DHT22;45078;51.654;21.250;2023-12-22T15:00:02;1.70;99.90
59311;DHT22;45078;51.654;21.250;2023-12-22T15:02:28;1.80;99.90
59311;DHT22;45078;51.654;21.250;2023-12-22T15:04:53;1.80;99.90
59311;DHT22;45078;51.654;21.250;2023-12-22T15:07:19;1.70;99.90
59311;DHT22;45078;51.654;21.250;2023-12-22T15:09:45;1.80;99.90
59311;DHT22;45078;51.654;21.250;2023-12-22T15:12:14;1.80;99.90
59311;DHT22;45078;51.654;21.250;2023-12-22T15:14:44;1.80;99.90
59311;DHT22;45078;51.654;21.250;2023-12-22T15:17:10;1.80;99.90
59311;DHT22;45078;51.654;21.250;2023-12-22T15:19:39;1.70;99.90
59311;DHT22;45078;51.654;21.250;2023-12-22T15:22:06;1.80;99.90
59311;DHT22;45078;51.654;21.250;2023-12-22T15:24:31;1.70;99.90
59311;DHT22;45078;51.654;21.250;2023-12-22T15:26:57;1.70;99.90
59311;DHT22;45078;51.654;21.250;2023-12-22T15:29:23;1.70;99.90
59311;DHT22;45078;51.654;21.250;2023-12-22T15:31:49;1.60;99.90
59311;DHT22;45078;51.654;21.250;2023-12-22T15:34:15;1.60;99.90
59311;DHT22;45078;51.654;21.250;2023-12-22T15:36:40;1.50;99.90
59311;DHT22;45078;51.654;21.250;2023-12-22T15:39:06;1.50;99.90
59311;DHT22;45078;51.654;21.250;2023-12-22T15:41:31;1.50;99.90
59311;DHT22;45078;51.654;21.250;2023-12-22T15:43:57;1.50;99.90
59311;DHT22;45078;51.654;21.250;2023-12-22T15:46:22;1.50;99.90
59311;DHT22;45078;51.654;21.250;2023-12-22T15:48:48;1.40;99.90
59311;DHT22;45078;51.654;21.250;2023-12-22T15:51:13;1.40;99.90
59311;DHT22;45078;51.654;21.250;2023-12-22T15:53:40;1.50;99.90